sensor_id;sensor_type;location;lat;lon;timestamp;temperature;humidity
12752;DHT22;6440;44.616;2.032;2022-07-23T00:02:03;23.20;90.80
12752;DHT22;6440;44.616;2.032;2022-07-23T00:04:31;23.10;91.20
12752;DHT22;6440;44.616;2.032;2022-07-23T00:07:00;23.10;91.40
12752;DHT22;6440;44.616;2.032;2022-07-23T00:09:28;23.00;91.60
12752;DHT22;6440;44.616;2.032;2022-07-23T00:11:57;23.00;91.70
12752;DHT22;6440;44.616;2.032;2022-07-23T00:14:26;23.00;91.70
12752;DHT22;6440;44.616;2.032;2022-07-23T00:16:54;23.00;91.70
12752;DHT22;6440;44.616;2.032;2022-07-23T00:19:23;23.10;91.60
12752;DHT22;6440;44.616;2.032;2022-07-23T00:21:52;23.00;91.70
12752;DHT22;6440;44.616;2.032;2022-07-23T00:24:20;23.00;91.60
12752;DHT22;6440;44.616;2.032;2022-07-23T00:26:48;22.90;91.70
12752;DHT22;6440;44.616;2.032;2022-07-23T00:29:17;22.90;92.10
12752;DHT22;6440;44.616;2.032;2022-07-23T00:31:46;22.90;92.20
12752;DHT22;6440;44.616;2.032;2022-07-23T00:34:14;22.90;92.40
12752;DHT22;6440;44.616;2.032;2022-07-23T00:36:42;22.90;92.30
12752;DHT22;6440;44.616;2.032;2022-07-23T00:39:11;22.90;92.10
12752;DHT22;6440;44.616;2.032;2022-07-23T00:41:40;22.90;92.10
12752;DHT22;6440;44.616;2.032;2022-07-23T00:44:19;22.80;92.20
12752;DHT22;6440;44.616;2.032;2022-07-23T00:46:57;22.70;92.50
12752;DHT22;6440;44.616;2.032;2022-07-23T00:49:27;22.70;92.80
12752;DHT22;6440;44.616;2.032;2022-07-23T00:51:54;22.70;92.80
12752;DHT22;6440;44.616;2.032;2022-07-23T00:54:22;22.60;92.90
12752;DHT22;6440;44.616;2.032;2022-07-23T00:56:50;22.50;93.20
12752;DHT22;6440;44.616;2.032;2022-07-23T00:59:18;22.50;93.40
12752;DHT22;6440;44.616;2.032;2022-07-23T01:01:46;22.40;94.00
12752;DHT22;6440;44.616;2.032;2022-07-23T01:04:15;22.30;94.00
12752;DHT22;6440;44.616;2.032;2022-07-23T01:06:43;22.30;94.30
12752;DHT22;6440;44.616;2.032;2022-07-23T01:09:10;22.30;94.30
12752;DHT22;6440;44.616;2.032;2022-07-23T01:11:38;22.20;94.60
12752;DHT22;6440;44.616;2.032;2022-07-23T01:14:10;22.10;94.80
12752;DHT22;6440;44.616;2.032;2022-07-23T01:16:37;22.00;95.40
12752;DHT22;6440;44.616;2.032;2022-07-23T01:19:05;22.00;95.30
12752;DHT22;6440;44.616;2.032;2022-07-23T01:21:38;22.00;94.80
12752;DHT22;6440;44.616;2.032;2022-07-23T01:24:06;22.10;94.70
12752;DHT22;6440;44.616;2.032;2022-07-23T01:26:34;22.20;94.70
12752;DHT22;6440;44.616;2.032;2022-07-23T01:29:02;22.20;94.90
12752;DHT22;6440;44.616;2.032;2022-07-23T01:31:30;22.20;95.10
12752;DHT22;6440;44.616;2.032;2022-07-23T01:33:58;22.10;95.20
12752;DHT22;6440;44.616;2.032;2022-07-23T01:36:26;22.10;95.50
12752;DHT22;6440;44.616;2.032;2022-07-23T01:38:54;22.10;95.60
12752;DHT22;6440;44.616;2.032;2022-07-23T01:41:22;22.10;95.70
12752;DHT22;6440;44.616;2.032;2022-07-23T01:43:51;22.10;95.60
12752;DHT22;6440;44.616;2.032;2022-07-23T01:46:20;22.20;95.50
12752;DHT22;6440;44.616;2.032;2022-07-23T01:48:48;22.20;95.30
12752;DHT22;6440;44.616;2.032;2022-07-23T01:51:16;22.20;95.00
12752;DHT22;6440;44.616;2.032;2022-07-23T01:53:44;22.20;94.80
12752;DHT22;6440;44.616;2.032;2022-07-23T01:56:13;22.20;95.50
12752;DHT22;6440;44.616;2.032;2022-07-23T01:58:41;22.20;94.90
12752;DHT22;6440;44.616;2.032;2022-07-23T02:01:10;22.20;94.50
12752;DHT22;6440;44.616;2.032;2022-07-23T02:03:39;22.10;94.40
12752;DHT22;6440;44.616;2.032;2022-07-23T02:06:08;22.10;94.50
12752;DHT22;6440;44.616;2.032;2022-07-23T02:08:36;22.00;94.80
12752;DHT22;6440;44.616;2.032;2022-07-23T02:11:05;22.00;94.90
12752;DHT22;6440;44.616;2.032;2022-07-23T02:13:34;21.90;95.10
12752;DHT22;6440;44.616;2.032;2022-07-23T02:16:02;21.90;95.30
12752;DHT22;6440;44.616;2.032;2022-07-23T02:18:31;21.80;95.10
12752;DHT22;6440;44.616;2.032;2022-07-23T02:21:00;21.80;95.00
12752;DHT22;6440;44.616;2.032;2022-07-23T02:23:29;21.80;95.10
12752;DHT22;6440;44.616;2.032;2022-07-23T02:25:57;21.70;95.00
12752;DHT22;6440;44.616;2.032;2022-07-23T02:28:26;21.70;95.20
12752;DHT22;6440;44.616;2.032;2022-07-23T02:30:55;21.60;95.50
12752;DHT22;6440;44.616;2.032;2022-07-23T02:33:25;21.50;95.70
12752;DHT22;6440;44.616;2.032;2022-07-23T02:35:53;21.50;96.30
12752;DHT22;6440;44.616;2.032;2022-07-23T02:38:22;21.40;96.50
12752;DHT22;6440;44.616;2.032;2022-07-23T02:40:51;21.20;97.20
12752;DHT22;6440;44.616;2.032;2022-07-23T02:43:19;21.10;97.80
12752;DHT22;6440;44.616;2.032;2022-07-23T02:45:48;20.90;98.40
12752;DHT22;6440;44.616;2.032;2022-07-23T02:48:17;20.80;99.00
12752;DHT22;6440;44.616;2.032;2022-07-23T02:50:46;20.60;99.30
12752;DHT22;6440;44.616;2.032;2022-07-23T02:53:15;20.50;99.90
12752;DHT22;6440;44.616;2.032;2022-07-23T02:55:44;20.40;99.90
12752;DHT22;6440;44.616;2.032;2022-07-23T02:58:13;20.40;99.90
12752;DHT22;6440;44.616;2.032;2022-07-23T03:00:42;20.30;99.90
12752;DHT22;6440;44.616;2.032;2022-07-23T03:03:11;20.20;99.90
12752;DHT22;6440;44.616;2.032;2022-07-23T03:05:40;20.20;99.90
12752;DHT22;6440;44.616;2.032;2022-07-23T03:08:09;20.20;99.90
12752;DHT22;6440;44.616;2.032;2022-07-23T03:10:38;20.20;99.90
12752;DHT22;6440;44.616;2.032;2022-07-23T03:13:07;20.20;99.90
12752;DHT22;6440;44.616;2.032;2022-07-23T03:15:36;20.10;99.90
12752;DHT22;6440;44.616;2.032;2022-07-23T03:18:05;20.10;99.90
12752;DHT22;6440;44.616;2.032;2022-07-23T03:20:34;20.10;99.90
12752;DHT22;6440;44.616;2.032;2022-07-23T03:23:03;20.00;99.90
12752;DHT22;6440;44.616;2.032;2022-07-23T03:25:32;20.00;99.90
12752;DHT22;6440;44.616;2.032;2022-07-23T03:28:01;19.90;99.90
12752;DHT22;6440;44.616;2.032;2022-07-23T03:30:30;19.90;99.90
12752;DHT22;6440;44.616;2.032;2022-07-23T03:32:59;19.90;99.90
12752;DHT22;6440;44.616;2.032;2022-07-23T03:35:29;19.90;99.90
12752;DHT22;6440;44.616;2.032;2022-07-23T03:37:58;19.90;99.90
12752;DHT22;6440;44.616;2.032;2022-07-23T03:40:27;19.90;99.90
12752;DHT22;6440;44.616;2.032;2022-07-23T03:42:56;19.80;99.90
12752;DHT22;6440;44.616;2.032;2022-07-23T03:45:24;19.80;99.90
12752;DHT22;6440;44.616;2.032;2022-07-23T03:47:53;19.70;99.90
12752;DHT22;6440;44.616;2.032;2022-07-23T03:50:22;19.70;99.90
12752;DHT22;6440;44.616;2.032;2022-07-23T03:52:50;19.60;99.90
12752;DHT22;6440;44.616;2.032;2022-07-23T03:55:19;19.50;99.90
12752;DHT22;6440;44.616;2.032;2022-07-23T03:57:47;19.40;99.90
12752;DHT22;6440;44.616;2.032;2022-07-23T04:00:17;19.30;99.90
12752;DHT22;6440;44.616;2.032;2022-07-23T04:02:45;19.30;99.90
12752;DHT22;6440;44.616;2.032;2022-07-23T04:05:14;19.20;99.90
12752;DHT22;6440;44.616;2.032;2022-07-23T04:07:43;19.20;99.90
12752;DHT22;6440;44.616;2.032;2022-07-23T04:10:12;19.20;99.90
12752;DHT22;6440;44.616;2.032;2022-07-23T04:12:41;19.20;99.90
12752;DHT22;6440;44.616;2.032;2022-07-23T04:15:11;19.20;99.90
12752;DHT22;6440;44.616;2.032;2022-07-23T04:17:39;19.20;99.90
12752;DHT22;6440;44.616;2.032;2022-07-23T04:20:09;19.20;99.90
12752;DHT22;6440;44.616;2.032;2022-07-23T04:22:38;19.20;99.90
12752;DHT22;6440;44.616;2.032;2022-07-23T04:25:07;19.20;99.90
12752;DHT22;6440;44.616;2.032;2022-07-23T04:27:36;19.10;99.90
12752;DHT22;6440;44.616;2.032;2022-07-23T04:30:07;19.10;99.90
12752;DHT22;6440;44.616;2.032;2022-07-23T04:32:36;19.10;99.90
12752;DHT22;6440;44.616;2.032;2022-07-23T04:35:05;19.10;99.90
12752;DHT22;6440;44.616;2.032;2022-07-23T04:37:34;19.10;99.90
12752;DHT22;6440;44.616;2.032;2022-07-23T04:40:04;19.10;99.90
12752;DHT22;6440;44.616;2.032;2022-07-23T04:42:34;19.10;99.90
12752;DHT22;6440;44.616;2.032;2022-07-23T04:45:03;19.20;99.90
12752;DHT22;6440;44.616;2.032;2022-07-23T04:47:32;19.20;99.90
12752;DHT22;6440;44.616;2.032;2022-07-23T04:50:00;19.20;99.90
12752;DHT22;6440;44.616;2.032;2022-07-23T04:52:29;19.10;99.90
12752;DHT22;6440;44.616;2.032;2022-07-23T04:54:58;19.10;99.90
12752;DHT22;6440;44.616;2.032;2022-07-23T04:57:27;19.10;99.90
12752;DHT22;6440;44.616;2.032;2022-07-23T04:59:56;19.10;99.90
12752;DHT22;6440;44.616;2.032;2022-07-23T05:02:25;19.10;99.90
12752;DHT22;6440;44.616;2.032;2022-07-23T05:04:54;19.10;99.90
12752;DHT22;6440;44.616;2.032;2022-07-23T05:07:23;19.20;99.90
12752;DHT22;6440;44.616;2.032;2022-07-23T05:09:52;19.20;99.90
12752;DHT22;6440;44.616;2.032;2022-07-23T05:12:21;19.30;99.90
12752;DHT22;6440;44.616;2.032;2022-07-23T05:14:50;19.40;99.90
12752;DHT22;6440;44.616;2.032;2022-07-23T05:17:19;19.50;99.90
12752;DHT22;6440;44.616;2.032;2022-07-23T05:19:48;19.60;99.90
12752;DHT22;6440;44.616;2.032;2022-07-23T05:22:17;19.80;99.90
12752;DHT22;6440;44.616;2.032;2022-07-23T05:24:47;19.90;99.90
12752;DHT22;6440;44.616;2.032;2022-07-23T05:27:16;20.00;99.90
12752;DHT22;6440;44.616;2.032;2022-07-23T05:29:45;20.10;99.90
12752;DHT22;6440;44.616;2.032;2022-07-23T05:32:14;20.20;99.90
12752;DHT22;6440;44.616;2.032;2022-07-23T05:34:43;20.30;99.90
12752;DHT22;6440;44.616;2.032;2022-07-23T05:37:12;20.40;99.90
12752;DHT22;6440;44.616;2.032;2022-07-23T05:39:41;20.50;99.90
12752;DHT22;6440;44.616;2.032;2022-07-23T05:42:10;20.50;99.90
12752;DHT22;6440;44.616;2.032;2022-07-23T05:44:39;20.60;99.90
12752;DHT22;6440;44.616;2.032;2022-07-23T05:47:08;20.60;99.90
12752;DHT22;6440;44.616;2.032;2022-07-23T05:49:37;20.70;99.90
12752;DHT22;6440;44.616;2.032;2022-07-23T05:52:05;20.80;99.90
12752;DHT22;6440;44.616;2.032;2022-07-23T05:54:34;20.90;99.90
12752;DHT22;6440;44.616;2.032;2022-07-23T05:57:02;20.90;99.90
12752;DHT22;6440;44.616;2.032;2022-07-23T05:59:31;20.90;99.90
12752;DHT22;6440;44.616;2.032;2022-07-23T06:01:59;21.00;99.90
12752;DHT22;6440;44.616;2.032;2022-07-23T06:04:28;21.00;99.90
12752;DHT22;6440;44.616;2.032;2022-07-23T06:06:57;21.00;99.90
12752;DHT22;6440;44.616;2.032;2022-07-23T06:09:26;21.00;99.90
12752;DHT22;6440;44.616;2.032;2022-07-23T06:11:55;21.00;99.90
12752;DHT22;6440;44.616;2.032;2022-07-23T06:14:24;21.00;99.70
12752;DHT22;6440;44.616;2.032;2022-07-23T06:16:53;21.00;99.70
12752;DHT22;6440;44.616;2.032;2022-07-23T06:19:22;21.00;99.70
12752;DHT22;6440;44.616;2.032;2022-07-23T06:21:51;21.10;99.50
12752;DHT22;6440;44.616;2.032;2022-07-23T06:24:20;21.10;99.90
12752;DHT22;6440;44.616;2.032;2022-07-23T06:26:49;21.10;99.90
12752;DHT22;6440;44.616;2.032;2022-07-23T06:29:18;21.10;99.90
12752;DHT22;6440;44.616;2.032;2022-07-23T06:31:47;21.20;99.90
12752;DHT22;6440;44.616;2.032;2022-07-23T06:34:16;21.30;99.30
12752;DHT22;6440;44.616;2.032;2022-07-23T06:36:44;21.40;99.40
12752;DHT22;6440;44.616;2.032;2022-07-23T06:39:13;21.40;99.10
12752;DHT22;6440;44.616;2.032;2022-07-23T06:41:42;21.50;98.60
12752;DHT22;6440;44.616;2.032;2022-07-23T06:44:11;21.50;98.60
12752;DHT22;6440;44.616;2.032;2022-07-23T06:46:39;21.60;98.90
12752;DHT22;6440;44.616;2.032;2022-07-23T06:49:08;21.70;98.40
12752;DHT22;6440;44.616;2.032;2022-07-23T06:51:37;21.80;98.00
12752;DHT22;6440;44.616;2.032;2022-07-23T06:54:05;21.80;97.70
12752;DHT22;6440;44.616;2.032;2022-07-23T06:56:34;21.70;98.00
12752;DHT22;6440;44.616;2.032;2022-07-23T06:59:02;21.70;98.20
12752;DHT22;6440;44.616;2.032;2022-07-23T07:01:31;21.80;98.20
12752;DHT22;6440;44.616;2.032;2022-07-23T07:04:00;21.90;97.40
12752;DHT22;6440;44.616;2.032;2022-07-23T07:06:28;22.00;97.80
12752;DHT22;6440;44.616;2.032;2022-07-23T07:08:57;22.00;97.20
12752;DHT22;6440;44.616;2.032;2022-07-23T07:11:25;22.30;96.40
12752;DHT22;6440;44.616;2.032;2022-07-23T07:13:53;22.50;95.90
12752;DHT22;6440;44.616;2.032;2022-07-23T07:16:22;22.60;95.30
12752;DHT22;6440;44.616;2.032;2022-07-23T07:18:51;22.70;95.40
12752;DHT22;6440;44.616;2.032;2022-07-23T07:21:20;23.00;94.20
12752;DHT22;6440;44.616;2.032;2022-07-23T07:23:48;23.20;93.90
12752;DHT22;6440;44.616;2.032;2022-07-23T07:26:18;23.40;93.20
12752;DHT22;6440;44.616;2.032;2022-07-23T07:28:46;23.50;92.80
12752;DHT22;6440;44.616;2.032;2022-07-23T07:31:15;23.60;92.20
12752;DHT22;6440;44.616;2.032;2022-07-23T07:33:44;23.70;91.90
12752;DHT22;6440;44.616;2.032;2022-07-23T07:36:13;23.90;91.20
12752;DHT22;6440;44.616;2.032;2022-07-23T07:38:41;24.20;90.70
12752;DHT22;6440;44.616;2.032;2022-07-23T07:41:10;24.90;89.10
12752;DHT22;6440;44.616;2.032;2022-07-23T07:43:39;25.60;86.60
12752;DHT22;6440;44.616;2.032;2022-07-23T07:46:07;25.90;85.90
12752;DHT22;6440;44.616;2.032;2022-07-23T07:48:36;25.70;85.50
12752;DHT22;6440;44.616;2.032;2022-07-23T07:51:04;25.60;85.60
12752;DHT22;6440;44.616;2.032;2022-07-23T07:53:32;25.60;85.70
12752;DHT22;6440;44.616;2.032;2022-07-23T07:56:01;25.40;86.30
12752;DHT22;6440;44.616;2.032;2022-07-23T07:58:30;25.30;86.40
12752;DHT22;6440;44.616;2.032;2022-07-23T08:00:58;25.40;86.00
12752;DHT22;6440;44.616;2.032;2022-07-23T08:03:27;25.60;85.20
12752;DHT22;6440;44.616;2.032;2022-07-23T08:05:55;26.20;84.00
12752;DHT22;6440;44.616;2.032;2022-07-23T08:08:24;26.60;83.00
12752;DHT22;6440;44.616;2.032;2022-07-23T08:10:53;26.70;83.00
12752;DHT22;6440;44.616;2.032;2022-07-23T08:13:21;26.70;82.60
12752;DHT22;6440;44.616;2.032;2022-07-23T08:15:50;26.60;82.60
12752;DHT22;6440;44.616;2.032;2022-07-23T08:18:18;27.30;81.40
12752;DHT22;6440;44.616;2.032;2022-07-23T08:20:46;28.40;79.10
12752;DHT22;6440;44.616;2.032;2022-07-23T08:23:15;29.60;74.30
12752;DHT22;6440;44.616;2.032;2022-07-23T08:25:43;31.10;71.40
12752;DHT22;6440;44.616;2.032;2022-07-23T08:28:12;32.20;69.20
12752;DHT22;6440;44.616;2.032;2022-07-23T08:30:40;32.50;69.50
12752;DHT22;6440;44.616;2.032;2022-07-23T08:33:08;32.20;68.30
12752;DHT22;6440;44.616;2.032;2022-07-23T08:35:37;31.50;70.00
12752;DHT22;6440;44.616;2.032;2022-07-23T08:38:06;30.40;72.70
12752;DHT22;6440;44.616;2.032;2022-07-23T08:40:32;29.70;73.80
12752;DHT22;6440;44.616;2.032;2022-07-23T08:43:00;29.10;75.10
12752;DHT22;6440;44.616;2.032;2022-07-23T08:45:27;28.80;75.30
12752;DHT22;6440;44.616;2.032;2022-07-23T08:47:56;29.00;75.20
12752;DHT22;6440;44.616;2.032;2022-07-23T08:50:24;28.70;74.80
12752;DHT22;6440;44.616;2.032;2022-07-23T08:52:52;28.60;75.00
12752;DHT22;6440;44.616;2.032;2022-07-23T08:55:20;28.10;75.60
12752;DHT22;6440;44.616;2.032;2022-07-23T08:57:48;28.00;77.00
12752;DHT22;6440;44.616;2.032;2022-07-23T09:00:16;28.00;77.10
12752;DHT22;6440;44.616;2.032;2022-07-23T09:02:44;27.90;76.70
12752;DHT22;6440;44.616;2.032;2022-07-23T09:05:12;27.90;76.50
12752;DHT22;6440;44.616;2.032;2022-07-23T09:10:25;28.90;74.80
12752;DHT22;6440;44.616;2.032;2022-07-23T09:12:54;29.10;73.60
12752;DHT22;6440;44.616;2.032;2022-07-23T09:15:22;29.40;72.80
12752;DHT22;6440;44.616;2.032;2022-07-23T09:17:51;29.60;72.70
12752;DHT22;6440;44.616;2.032;2022-07-23T09:20:20;29.80;72.30
12752;DHT22;6440;44.616;2.032;2022-07-23T09:22:49;30.40;69.90
12752;DHT22;6440;44.616;2.032;2022-07-23T09:25:18;31.00;68.70
12752;DHT22;6440;44.616;2.032;2022-07-23T09:27:50;30.70;69.20
12752;DHT22;6440;44.616;2.032;2022-07-23T09:30:27;31.10;69.20
12752;DHT22;6440;44.616;2.032;2022-07-23T09:35:50;30.00;71.00
12752;DHT22;6440;44.616;2.032;2022-07-23T09:38:18;29.40;72.30
12752;DHT22;6440;44.616;2.032;2022-07-23T09:40:45;28.90;73.50
12752;DHT22;6440;44.616;2.032;2022-07-23T09:43:14;28.80;73.50
12752;DHT22;6440;44.616;2.032;2022-07-23T09:45:41;29.30;72.30
12752;DHT22;6440;44.616;2.032;2022-07-23T09:48:10;29.30;70.90
12752;DHT22;6440;44.616;2.032;2022-07-23T09:50:39;29.30;70.90
12752;DHT22;6440;44.616;2.032;2022-07-23T09:53:06;29.60;70.70
12752;DHT22;6440;44.616;2.032;2022-07-23T09:55:34;30.30;68.90
12752;DHT22;6440;44.616;2.032;2022-07-23T09:58:03;31.10;68.40
12752;DHT22;6440;44.616;2.032;2022-07-23T10:00:30;31.50;67.80
12752;DHT22;6440;44.616;2.032;2022-07-23T10:02:58;31.80;67.20
12752;DHT22;6440;44.616;2.032;2022-07-23T10:05:26;32.70;65.70
12752;DHT22;6440;44.616;2.032;2022-07-23T10:07:54;33.70;63.00
12752;DHT22;6440;44.616;2.032;2022-07-23T10:10:22;34.30;62.00
12752;DHT22;6440;44.616;2.032;2022-07-23T10:12:50;34.00;61.50
12752;DHT22;6440;44.616;2.032;2022-07-23T10:15:33;33.80;61.70
12752;DHT22;6440;44.616;2.032;2022-07-23T10:18:01;33.60;62.20
12752;DHT22;6440;44.616;2.032;2022-07-23T10:20:31;33.00;64.00
12752;DHT22;6440;44.616;2.032;2022-07-23T10:23:02;32.30;65.00
12752;DHT22;6440;44.616;2.032;2022-07-23T10:25:51;31.70;66.10
12752;DHT22;6440;44.616;2.032;2022-07-23T10:28:26;31.50;66.50
12752;DHT22;6440;44.616;2.032;2022-07-23T10:33:53;32.90;63.90
12752;DHT22;6440;44.616;2.032;2022-07-23T10:39:16;33.30;62.90
12752;DHT22;6440;44.616;2.032;2022-07-23T10:41:43;33.00;63.20
12752;DHT22;6440;44.616;2.032;2022-07-23T10:44:12;33.20;63.00
12752;DHT22;6440;44.616;2.032;2022-07-23T10:49:35;33.90;61.70
12752;DHT22;6440;44.616;2.032;2022-07-23T10:52:19;33.90;61.90
12752;DHT22;6440;44.616;2.032;2022-07-23T10:54:48;34.10;61.90
12752;DHT22;6440;44.616;2.032;2022-07-23T10:57:15;34.40;60.60
12752;DHT22;6440;44.616;2.032;2022-07-23T11:00:09;34.70;60.40
12752;DHT22;6440;44.616;2.032;2022-07-23T11:02:40;34.40;60.30
12752;DHT22;6440;44.616;2.032;2022-07-23T11:05:10;34.30;60.10
12752;DHT22;6440;44.616;2.032;2022-07-23T11:10:06;34.10;60.50
12752;DHT22;6440;44.616;2.032;2022-07-23T11:12:34;34.10;60.80
12752;DHT22;6440;44.616;2.032;2022-07-23T11:15:11;34.20;60.40
12752;DHT22;6440;44.616;2.032;2022-07-23T11:18:00;34.40;61.00
12752;DHT22;6440;44.616;2.032;2022-07-23T11:20:29;34.30;61.60
12752;DHT22;6440;44.616;2.032;2022-07-23T11:22:58;34.10;60.90
12752;DHT22;6440;44.616;2.032;2022-07-23T11:25:29;34.10;61.20
12752;DHT22;6440;44.616;2.032;2022-07-23T11:28:14;34.10;61.10
12752;DHT22;6440;44.616;2.032;2022-07-23T11:30:42;34.10;60.80
12752;DHT22;6440;44.616;2.032;2022-07-23T11:33:18;34.00;61.00
12752;DHT22;6440;44.616;2.032;2022-07-23T11:35:46;34.10;61.10
12752;DHT22;6440;44.616;2.032;2022-07-23T11:38:17;34.10;61.30
12752;DHT22;6440;44.616;2.032;2022-07-23T11:40:45;34.20;61.30
12752;DHT22;6440;44.616;2.032;2022-07-23T11:43:12;34.20;61.40
12752;DHT22;6440;44.616;2.032;2022-07-23T11:45:42;34.30;60.00
12752;DHT22;6440;44.616;2.032;2022-07-23T11:48:14;33.50;61.70
12752;DHT22;6440;44.616;2.032;2022-07-23T11:50:37;32.30;63.50
12752;DHT22;6440;44.616;2.032;2022-07-23T11:53:05;31.70;64.40
12752;DHT22;6440;44.616;2.032;2022-07-23T11:55:34;31.80;64.20
12752;DHT22;6440;44.616;2.032;2022-07-23T11:58:02;32.00;64.20
12752;DHT22;6440;44.616;2.032;2022-07-23T12:00:30;32.10;64.30
12752;DHT22;6440;44.616;2.032;2022-07-23T12:02:59;31.70;65.60
12752;DHT22;6440;44.616;2.032;2022-07-23T12:05:29;31.70;65.50
12752;DHT22;6440;44.616;2.032;2022-07-23T12:07:55;31.70;64.40
12752;DHT22;6440;44.616;2.032;2022-07-23T12:10:24;31.60;64.00
12752;DHT22;6440;44.616;2.032;2022-07-23T12:12:56;31.50;65.20
12752;DHT22;6440;44.616;2.032;2022-07-23T12:15:24;31.40;66.00
12752;DHT22;6440;44.616;2.032;2022-07-23T12:17:52;31.40;65.90
12752;DHT22;6440;44.616;2.032;2022-07-23T12:20:22;31.50;66.00
12752;DHT22;6440;44.616;2.032;2022-07-23T12:22:50;31.60;65.60
12752;DHT22;6440;44.616;2.032;2022-07-23T12:25:18;31.70;64.40
12752;DHT22;6440;44.616;2.032;2022-07-23T12:27:45;31.70;64.40
12752;DHT22;6440;44.616;2.032;2022-07-23T12:30:22;31.70;65.00
12752;DHT22;6440;44.616;2.032;2022-07-23T12:32:51;31.70;63.90
12752;DHT22;6440;44.616;2.032;2022-07-23T12:35:18;31.60;64.10
12752;DHT22;6440;44.616;2.032;2022-07-23T12:37:46;31.60;64.90
12752;DHT22;6440;44.616;2.032;2022-07-23T12:40:30;31.60;64.50
12752;DHT22;6440;44.616;2.032;2022-07-23T12:43:00;31.10;65.40
12752;DHT22;6440;44.616;2.032;2022-07-23T12:45:28;30.90;65.60
12752;DHT22;6440;44.616;2.032;2022-07-23T12:48:03;31.00;65.60
12752;DHT22;6440;44.616;2.032;2022-07-23T12:50:36;30.70;65.90
12752;DHT22;6440;44.616;2.032;2022-07-23T12:53:05;30.70;66.10
12752;DHT22;6440;44.616;2.032;2022-07-23T12:55:33;31.00;66.50
12752;DHT22;6440;44.616;2.032;2022-07-23T12:58:05;30.80;66.60
12752;DHT22;6440;44.616;2.032;2022-07-23T13:00:54;30.80;66.20
12752;DHT22;6440;44.616;2.032;2022-07-23T13:03:25;31.00;66.40
12752;DHT22;6440;44.616;2.032;2022-07-23T13:05:53;31.20;64.90
12752;DHT22;6440;44.616;2.032;2022-07-23T13:08:21;31.00;64.40
12752;DHT22;6440;44.616;2.032;2022-07-23T13:10:49;30.60;65.00
12752;DHT22;6440;44.616;2.032;2022-07-23T13:13:22;30.70;66.50
12752;DHT22;6440;44.616;2.032;2022-07-23T13:15:49;31.00;65.30
12752;DHT22;6440;44.616;2.032;2022-07-23T13:18:17;31.10;64.70
12752;DHT22;6440;44.616;2.032;2022-07-23T13:20:45;31.20;64.10
12752;DHT22;6440;44.616;2.032;2022-07-23T13:23:12;31.30;63.90
12752;DHT22;6440;44.616;2.032;2022-07-23T13:25:40;31.40;64.10
12752;DHT22;6440;44.616;2.032;2022-07-23T13:28:08;31.50;63.80
12752;DHT22;6440;44.616;2.032;2022-07-23T13:30:36;31.10;64.00
12752;DHT22;6440;44.616;2.032;2022-07-23T13:33:05;31.10;64.50
12752;DHT22;6440;44.616;2.032;2022-07-23T13:35:33;31.20;64.90
12752;DHT22;6440;44.616;2.032;2022-07-23T13:38:01;31.20;64.50
12752;DHT22;6440;44.616;2.032;2022-07-23T13:40:28;31.20;63.40
12752;DHT22;6440;44.616;2.032;2022-07-23T13:42:57;31.30;62.90
12752;DHT22;6440;44.616;2.032;2022-07-23T13:45:26;31.20;64.00
12752;DHT22;6440;44.616;2.032;2022-07-23T13:47:54;31.00;64.00
12752;DHT22;6440;44.616;2.032;2022-07-23T13:50:22;31.00;64.60
12752;DHT22;6440;44.616;2.032;2022-07-23T13:52:51;31.00;65.30
12752;DHT22;6440;44.616;2.032;2022-07-23T13:55:19;30.90;65.80
12752;DHT22;6440;44.616;2.032;2022-07-23T13:57:48;30.90;65.10
12752;DHT22;6440;44.616;2.032;2022-07-23T14:00:16;31.00;65.20
12752;DHT22;6440;44.616;2.032;2022-07-23T14:02:45;31.00;65.40
12752;DHT22;6440;44.616;2.032;2022-07-23T14:05:14;30.90;65.50
12752;DHT22;6440;44.616;2.032;2022-07-23T14:07:42;30.90;66.40
12752;DHT22;6440;44.616;2.032;2022-07-23T14:10:10;31.00;65.80
12752;DHT22;6440;44.616;2.032;2022-07-23T14:12:39;31.10;65.20
12752;DHT22;6440;44.616;2.032;2022-07-23T14:15:07;31.30;65.30
12752;DHT22;6440;44.616;2.032;2022-07-23T14:17:36;31.20;65.20
12752;DHT22;6440;44.616;2.032;2022-07-23T14:20:05;31.20;64.70
12752;DHT22;6440;44.616;2.032;2022-07-23T14:22:33;31.20;64.90
12752;DHT22;6440;44.616;2.032;2022-07-23T14:25:02;31.30;65.00
12752;DHT22;6440;44.616;2.032;2022-07-23T14:27:30;31.30;65.00
12752;DHT22;6440;44.616;2.032;2022-07-23T14:29:59;31.30;64.30
12752;DHT22;6440;44.616;2.032;2022-07-23T14:32:27;31.30;64.10
12752;DHT22;6440;44.616;2.032;2022-07-23T14:34:56;31.10;64.50
12752;DHT22;6440;44.616;2.032;2022-07-23T14:37:24;31.10;64.80
12752;DHT22;6440;44.616;2.032;2022-07-23T14:39:53;31.10;65.10
12752;DHT22;6440;44.616;2.032;2022-07-23T14:42:22;31.00;65.70
12752;DHT22;6440;44.616;2.032;2022-07-23T14:44:50;31.10;64.80
12752;DHT22;6440;44.616;2.032;2022-07-23T14:47:19;31.10;64.80
12752;DHT22;6440;44.616;2.032;2022-07-23T14:49:48;31.10;64.70
12752;DHT22;6440;44.616;2.032;2022-07-23T14:52:15;31.00;64.60
12752;DHT22;6440;44.616;2.032;2022-07-23T14:54:44;31.00;64.30
12752;DHT22;6440;44.616;2.032;2022-07-23T14:57:13;31.00;63.70
12752;DHT22;6440;44.616;2.032;2022-07-23T14:59:42;30.90;64.10
12752;DHT22;6440;44.616;2.032;2022-07-23T15:02:11;30.80;64.20
12752;DHT22;6440;44.616;2.032;2022-07-23T15:04:40;30.90;64.40
12752;DHT22;6440;44.616;2.032;2022-07-23T15:07:09;30.90;64.10
12752;DHT22;6440;44.616;2.032;2022-07-23T15:09:38;30.90;64.10
12752;DHT22;6440;44.616;2.032;2022-07-23T15:12:07;30.90;63.90
12752;DHT22;6440;44.616;2.032;2022-07-23T15:14:35;30.80;63.60
12752;DHT22;6440;44.616;2.032;2022-07-23T15:17:04;30.80;63.70
12752;DHT22;6440;44.616;2.032;2022-07-23T15:19:33;30.70;65.00
12752;DHT22;6440;44.616;2.032;2022-07-23T15:22:02;30.80;65.40
12752;DHT22;6440;44.616;2.032;2022-07-23T15:24:31;30.90;63.60
12752;DHT22;6440;44.616;2.032;2022-07-23T15:26:59;30.90;64.10
12752;DHT22;6440;44.616;2.032;2022-07-23T15:29:28;30.90;64.00
12752;DHT22;6440;44.616;2.032;2022-07-23T15:31:56;30.90;63.60
12752;DHT22;6440;44.616;2.032;2022-07-23T15:34:26;30.90;63.40
12752;DHT22;6440;44.616;2.032;2022-07-23T15:36:53;30.80;63.60
12752;DHT22;6440;44.616;2.032;2022-07-23T15:39:22;30.70;64.10
12752;DHT22;6440;44.616;2.032;2022-07-23T15:41:51;30.60;63.80
12752;DHT22;6440;44.616;2.032;2022-07-23T15:44:19;30.60;64.90
12752;DHT22;6440;44.616;2.032;2022-07-23T15:46:48;30.60;64.00
12752;DHT22;6440;44.616;2.032;2022-07-23T15:49:17;30.70;63.60
12752;DHT22;6440;44.616;2.032;2022-07-23T15:51:45;30.70;64.50
12752;DHT22;6440;44.616;2.032;2022-07-23T15:54:13;30.80;63.60
12752;DHT22;6440;44.616;2.032;2022-07-23T15:56:42;30.80;63.40
12752;DHT22;6440;44.616;2.032;2022-07-23T15:59:10;30.80;63.00
12752;DHT22;6440;44.616;2.032;2022-07-23T16:01:39;30.70;63.60
12752;DHT22;6440;44.616;2.032;2022-07-23T16:04:07;30.60;63.50
12752;DHT22;6440;44.616;2.032;2022-07-23T16:06:36;30.60;62.90
12752;DHT22;6440;44.616;2.032;2022-07-23T16:09:04;30.60;63.10
12752;DHT22;6440;44.616;2.032;2022-07-23T16:11:33;30.60;63.10
12752;DHT22;6440;44.616;2.032;2022-07-23T16:14:00;30.60;63.00